sensor_id;sensor_type;location;lat;lon;timestamp;pressure;altitude;pressure_sealevel;temperature;humidity
55912;BME280;41823;45.534;-73.332;2022-11-13T00:01:17;100030.38;;;31.03;13.05
55912;BME280;41823;45.534;-73.332;2022-11-13T00:03:47;100026.54;;;30.97;13.85
55912;BME280;41823;45.534;-73.332;2022-11-13T00:06:16;100031.60;;;31.04;13.86
55912;BME280;41823;45.534;-73.332;2022-11-13T00:08:46;100059.25;;;30.86;12.98
55912;BME280;41823;45.534;-73.332;2022-11-13T00:11:17;100065.98;;;31.15;13.39
55912;BME280;41823;45.534;-73.332;2022-11-13T00:13:46;100075.45;;;31.07;13.22
55912;BME280;41823;45.534;-73.332;2022-11-13T00:16:16;100077.77;;;30.02;13.41
55912;BME280;41823;45.534;-73.332;2022-11-13T00:18:44;100086.86;;;30.52;13.48
55912;BME280;41823;45.534;-73.332;2022-11-13T00:21:15;100089.61;;;29.84;13.46
55912;BME280;41823;45.534;-73.332;2022-11-13T00:23:44;100103.39;;;29.41;13.41
55912;BME280;41823;45.534;-73.332;2022-11-13T00:26:14;100111.44;;;29.79;13.39
55912;BME280;41823;45.534;-73.332;2022-11-13T00:28:43;100122.65;;;29.86;13.30
55912;BME280;41823;45.534;-73.332;2022-11-13T00:31:13;100138.81;;;29.58;13.49
55912;BME280;41823;45.534;-73.332;2022-11-13T00:33:47;100146.61;;;29.49;13.52
55912;BME280;41823;45.534;-73.332;2022-11-13T00:36:17;100145.99;;;29.24;13.88
55912;BME280;41823;45.534;-73.332;2022-11-13T00:38:45;100147.72;;;30.25;13.32
55912;BME280;41823;45.534;-73.332;2022-11-13T00:41:13;100154.71;;;29.75;13.30
55912;BME280;41823;45.534;-73.332;2022-11-13T00:43:41;100170.76;;;29.78;13.30
55912;BME280;41823;45.534;-73.332;2022-11-13T00:46:09;100155.80;;;29.73;13.67
55912;BME280;41823;45.534;-73.332;2022-11-13T00:48:37;100162.93;;;29.66;13.60
55912;BME280;41823;45.534;-73.332;2022-11-13T00:51:06;100160.41;;;30.36;13.23
55912;BME280;41823;45.534;-73.332;2022-11-13T00:53:34;100166.84;;;30.08;13.10
55912;BME280;41823;45.534;-73.332;2022-11-13T00:56:02;100177.23;;;29.71;13.56
55912;BME280;41823;45.534;-73.332;2022-11-13T00:58:30;100175.77;;;30.57;13.28
55912;BME280;41823;45.534;-73.332;2022-11-13T01:01:04;100177.08;;;30.71;13.54
55912;BME280;41823;45.534;-73.332;2022-11-13T01:03:31;100182.35;;;30.32;13.36
55912;BME280;41823;45.534;-73.332;2022-11-13T01:06:00;100179.62;;;30.27;13.62
55912;BME280;41823;45.534;-73.332;2022-11-13T01:08:28;100161.73;;;30.22;13.39
55912;BME280;41823;45.534;-73.332;2022-11-13T01:10:56;100149.89;;;29.55;13.52
55912;BME280;41823;45.534;-73.332;2022-11-13T01:13:24;100141.75;;;30.19;13.31
55912;BME280;41823;45.534;-73.332;2022-11-13T01:15:52;100143.53;;;30.10;13.31
55912;BME280;41823;45.534;-73.332;2022-11-13T01:18:24;100151.00;;;29.69;13.29
55912;BME280;41823;45.534;-73.332;2022-11-13T01:21:02;100147.70;;;29.45;13.25
55912;BME280;41823;45.534;-73.332;2022-11-13T01:23:30;100137.79;;;28.98;13.60
55912;BME280;41823;45.534;-73.332;2022-11-13T01:26:05;100124.94;;;29.38;13.98
55912;BME280;41823;45.534;-73.332;2022-11-13T01:28:33;100116.18;;;29.19;14.31
55912;BME280;41823;45.534;-73.332;2022-11-13T01:31:04;100121.03;;;29.40;13.69
55912;BME280;41823;45.534;-73.332;2022-11-13T01:33:33;100116.91;;;29.54;13.46
55912;BME280;41823;45.534;-73.332;2022-11-13T01:36:02;100118.57;;;29.06;13.74
55912;BME280;41823;45.534;-73.332;2022-11-13T01:38:31;100119.92;;;29.94;13.17
55912;BME280;41823;45.534;-73.332;2022-11-13T01:40:59;100119.29;;;29.57;13.44
55912;BME280;41823;45.534;-73.332;2022-11-13T01:43:29;100123.69;;;29.84;13.16
55912;BME280;41823;45.534;-73.332;2022-11-13T01:46:46;100133.42;;;29.95;13.18
55912;BME280;41823;45.534;-73.332;2022-11-13T01:49:24;100121.05;;;29.61;13.43
55912;BME280;41823;45.534;-73.332;2022-11-13T01:51:56;100114.29;;;30.04;13.12
55912;BME280;41823;45.534;-73.332;2022-11-13T01:54:28;100104.26;;;29.68;13.27
55912;BME280;41823;45.534;-73.332;2022-11-13T01:56:56;100095.13;;;29.32;13.27
55912;BME280;41823;45.534;-73.332;2022-11-13T01:59:28;100097.74;;;29.30;13.54
55912;BME280;41823;45.534;-73.332;2022-11-13T02:01:57;100093.04;;;29.88;13.18
55912;BME280;41823;45.534;-73.332;2022-11-13T02:04:27;100094.06;;;29.66;13.29
55912;BME280;41823;45.534;-73.332;2022-11-13T02:06:57;100095.70;;;29.16;14.12
55912;BME280;41823;45.534;-73.332;2022-11-13T02:09:28;100098.59;;;29.60;14.08
55912;BME280;41823;45.534;-73.332;2022-11-13T02:11:56;100089.73;;;29.36;14.34
55912;BME280;41823;45.534;-73.332;2022-11-13T02:14:26;100095.59;;;30.02;13.95
55912;BME280;41823;45.534;-73.332;2022-11-13T02:16:59;100091.72;;;30.42;13.76
55912;BME280;41823;45.534;-73.332;2022-11-13T02:19:31;100093.15;;;30.01;13.56
55912;BME280;41823;45.534;-73.332;2022-11-13T02:22:05;100095.19;;;30.04;13.72
55912;BME280;41823;45.534;-73.332;2022-11-13T02:24:39;100100.03;;;29.34;14.41
55912;BME280;41823;45.534;-73.332;2022-11-13T02:27:14;100103.98;;;29.48;13.85
55912;BME280;41823;45.534;-73.332;2022-11-13T02:29:45;100113.33;;;29.43;13.77
55912;BME280;41823;45.534;-73.332;2022-11-13T02:32:13;100118.37;;;29.87;13.18
55912;BME280;41823;45.534;-73.332;2022-11-13T02:34:41;100123.22;;;29.81;13.32
55912;BME280;41823;45.534;-73.332;2022-11-13T02:37:08;100120.50;;;29.67;13.56
55912;BME280;41823;45.534;-73.332;2022-11-13T02:39:36;100124.53;;;30.25;13.71
55912;BME280;41823;45.534;-73.332;2022-11-13T02:42:04;100126.56;;;30.13;14.07
55912;BME280;41823;45.534;-73.332;2022-11-13T02:44:32;100131.39;;;30.44;13.99
55912;BME280;41823;45.534;-73.332;2022-11-13T02:47:12;100137.91;;;30.03;13.99
55912;BME280;41823;45.534;-73.332;2022-11-13T02:49:41;100140.11;;;30.14;14.29
55912;BME280;41823;45.534;-73.332;2022-11-13T02:52:14;100138.48;;;30.10;14.49
55912;BME280;41823;45.534;-73.332;2022-11-13T02:54:42;100124.52;;;30.57;14.24
55912;BME280;41823;45.534;-73.332;2022-11-13T02:57:10;100132.38;;;30.41;14.27
55912;BME280;41823;45.534;-73.332;2022-11-13T02:59:37;100152.21;;;30.29;14.29
55912;BME280;41823;45.534;-73.332;2022-11-13T03:02:05;100156.30;;;29.86;14.53
55912;BME280;41823;45.534;-73.332;2022-11-13T03:04:34;100156.79;;;30.18;14.54
55912;BME280;41823;45.534;-73.332;2022-11-13T03:07:01;100149.14;;;30.09;14.62
55912;BME280;41823;45.534;-73.332;2022-11-13T03:09:29;100145.01;;;29.83;14.88
55912;BME280;41823;45.534;-73.332;2022-11-13T03:11:57;100131.19;;;30.21;14.71
55912;BME280;41823;45.534;-73.332;2022-11-13T03:14:25;100145.95;;;29.90;14.63
55912;BME280;41823;45.534;-73.332;2022-11-13T03:16:53;100147.76;;;30.31;14.42
55912;BME280;41823;45.534;-73.332;2022-11-13T03:19:21;100147.89;;;30.35;14.53
55912;BME280;41823;45.534;-73.332;2022-11-13T03:21:49;100156.09;;;30.22;14.66
55912;BME280;41823;45.534;-73.332;2022-11-13T03:24:17;100157.87;;;30.07;14.68
55912;BME280;41823;45.534;-73.332;2022-11-13T03:26:48;100147.00;;;29.37;15.16
55912;BME280;41823;45.534;-73.332;2022-11-13T03:29:17;100147.76;;;30.06;14.83
55912;BME280;41823;45.534;-73.332;2022-11-13T03:31:45;100144.35;;;30.12;14.71
55912;BME280;41823;45.534;-73.332;2022-11-13T03:34:13;100151.23;;;29.66;15.00
55912;BME280;41823;45.534;-73.332;2022-11-13T03:36:41;100144.83;;;29.59;15.19
55912;BME280;41823;45.534;-73.332;2022-11-13T03:39:09;100141.43;;;30.12;15.00
55912;BME280;41823;45.534;-73.332;2022-11-13T03:41:36;100149.35;;;29.96;15.03
55912;BME280;41823;45.534;-73.332;2022-11-13T03:44:06;100154.57;;;29.74;15.41
55912;BME280;41823;45.534;-73.332;2022-11-13T03:46:40;100148.49;;;30.38;14.83
55912;BME280;41823;45.534;-73.332;2022-11-13T03:49:08;100137.47;;;30.36;14.62
55912;BME280;41823;45.534;-73.332;2022-11-13T03:51:37;100136.90;;;29.58;15.02
55912;BME280;41823;45.534;-73.332;2022-11-13T03:54:10;100138.71;;;29.72;15.08
55912;BME280;41823;45.534;-73.332;2022-11-13T03:56:39;100145.99;;;29.57;15.04
55912;BME280;41823;45.534;-73.332;2022-11-13T03:59:08;100161.70;;;29.75;15.14
55912;BME280;41823;45.534;-73.332;2022-11-13T04:01:36;100169.90;;;29.45;15.31
55912;BME280;41823;45.534;-73.332;2022-11-13T04:04:04;100164.69;;;29.59;14.95
55912;BME280;41823;45.534;-73.332;2022-11-13T04:06:33;100156.63;;;29.14;15.49
55912;BME280;41823;45.534;-73.332;2022-11-13T04:09:06;100168.64;;;29.09;15.52
55912;BME280;41823;45.534;-73.332;2022-11-13T04:11:39;100179.23;;;29.80;14.94
55912;BME280;41823;45.534;-73.332;2022-11-13T04:14:07;100174.29;;;29.94;14.74
55912;BME280;41823;45.534;-73.332;2022-11-13T04:16:40;100170.12;;;30.16;14.71
55912;BME280;41823;45.534;-73.332;2022-11-13T04:19:08;100156.24;;;30.27;14.69
55912;BME280;41823;45.534;-73.332;2022-11-13T04:21:35;100164.67;;;30.03;14.86
55912;BME280;41823;45.534;-73.332;2022-11-13T04:24:05;100170.99;;;30.25;14.67
55912;BME280;41823;45.534;-73.332;2022-11-13T04:26:33;100163.13;;;29.78;14.86
55912;BME280;41823;45.534;-73.332;2022-11-13T04:29:01;100171.19;;;29.65;14.97
55912;BME280;41823;45.534;-73.332;2022-11-13T04:31:29;100170.40;;;29.14;15.20
55912;BME280;41823;45.534;-73.332;2022-11-13T04:33:57;100184.40;;;28.92;15.52
55912;BME280;41823;45.534;-73.332;2022-11-13T04:36:25;100194.42;;;29.10;15.35
55912;BME280;41823;45.534;-73.332;2022-11-13T04:38:53;100202.98;;;28.85;15.53
55912;BME280;41823;45.534;-73.332;2022-11-13T04:41:21;100204.19;;;28.70;15.45
55912;BME280;41823;45.534;-73.332;2022-11-13T04:43:49;100212.15;;;28.92;15.49
55912;BME280;41823;45.534;-73.332;2022-11-13T04:46:17;100215.15;;;29.43;15.08
55912;BME280;41823;45.534;-73.332;2022-11-13T04:48:45;100206.08;;;29.19;15.09
55912;BME280;41823;45.534;-73.332;2022-11-13T04:51:13;100212.75;;;29.32;15.36
55912;BME280;41823;45.534;-73.332;2022-11-13T04:53:41;100202.25;;;29.14;15.30
55912;BME280;41823;45.534;-73.332;2022-11-13T04:56:09;100195.37;;;28.92;15.37
55912;BME280;41823;45.534;-73.332;2022-11-13T04:58:37;100179.44;;;29.03;15.42
55912;BME280;41823;45.534;-73.332;2022-11-13T05:01:04;100169.76;;;28.60;15.76
55912;BME280;41823;45.534;-73.332;2022-11-13T05:03:32;100183.65;;;28.59;15.91
55912;BME280;41823;45.534;-73.332;2022-11-13T05:06:03;100194.49;;;28.62;15.89
55912;BME280;41823;45.534;-73.332;2022-11-13T05:08:31;100199.35;;;28.23;16.18
55912;BME280;41823;45.534;-73.332;2022-11-13T05:10:59;100209.69;;;28.44;15.86
55912;BME280;41823;45.534;-73.332;2022-11-13T05:13:30;100210.92;;;28.80;15.68
55912;BME280;41823;45.534;-73.332;2022-11-13T05:16:00;100210.58;;;29.08;15.52
55912;BME280;41823;45.534;-73.332;2022-11-13T05:18:28;100210.16;;;29.43;15.01
55912;BME280;41823;45.534;-73.332;2022-11-13T05:20:56;100210.73;;;29.26;14.98
55912;BME280;41823;45.534;-73.332;2022-11-13T05:23:24;100217.01;;;28.93;15.33
55912;BME280;41823;45.534;-73.332;2022-11-13T05:25:52;100217.56;;;30.07;14.93
55912;BME280;41823;45.534;-73.332;2022-11-13T05:28:25;100214.58;;;29.70;14.76
55912;BME280;41823;45.534;-73.332;2022-11-13T05:31:00;100216.49;;;29.72;14.94
55912;BME280;41823;45.534;-73.332;2022-11-13T05:33:29;100213.12;;;30.10;14.59
55912;BME280;41823;45.534;-73.332;2022-11-13T05:36:01;100210.65;;;30.06;14.76
55912;BME280;41823;45.534;-73.332;2022-11-13T05:38:29;100208.39;;;29.72;14.76
55912;BME280;41823;45.534;-73.332;2022-11-13T05:41:02;100212.45;;;29.63;14.79
55912;BME280;41823;45.534;-73.332;2022-11-13T05:43:30;100216.76;;;30.04;14.53
55912;BME280;41823;45.534;-73.332;2022-11-13T05:46:00;100218.48;;;29.85;14.68
55912;BME280;41823;45.534;-73.332;2022-11-13T05:48:29;100223.61;;;30.41;14.29
55912;BME280;41823;45.534;-73.332;2022-11-13T05:51:01;100235.00;;;30.05;14.79
55912;BME280;41823;45.534;-73.332;2022-11-13T05:53:29;100236.59;;;30.18;14.66
55912;BME280;41823;45.534;-73.332;2022-11-13T05:56:00;100231.42;;;29.89;14.59
55912;BME280;41823;45.534;-73.332;2022-11-13T05:58:29;100231.33;;;30.15;14.56
55912;BME280;41823;45.534;-73.332;2022-11-13T06:01:07;100233.75;;;29.99;14.77
55912;BME280;41823;45.534;-73.332;2022-11-13T06:03:37;100231.66;;;29.58;14.93
55912;BME280;41823;45.534;-73.332;2022-11-13T06:06:08;100234.15;;;29.77;14.88
55912;BME280;41823;45.534;-73.332;2022-11-13T06:08:37;100235.06;;;29.42;15.21
55912;BME280;41823;45.534;-73.332;2022-11-13T06:11:07;100240.75;;;29.74;15.00
55912;BME280;41823;45.534;-73.332;2022-11-13T06:13:36;100242.39;;;29.77;15.13
55912;BME280;41823;45.534;-73.332;2022-11-13T06:16:06;100247.30;;;29.96;15.03
55912;BME280;41823;45.534;-73.332;2022-11-13T06:18:35;100249.59;;;29.96;15.19
55912;BME280;41823;45.534;-73.332;2022-11-13T06:21:07;100251.23;;;29.71;15.20
55912;BME280;41823;45.534;-73.332;2022-11-13T06:23:36;100252.05;;;29.54;15.09
55912;BME280;41823;45.534;-73.332;2022-11-13T06:26:07;100256.73;;;29.77;15.35
55912;BME280;41823;45.534;-73.332;2022-11-13T06:28:35;100265.25;;;30.10;15.11
55912;BME280;41823;45.534;-73.332;2022-11-13T06:31:05;100263.47;;;29.91;15.10
55912;BME280;41823;45.534;-73.332;2022-11-13T06:33:34;100258.58;;;30.09;15.09
55912;BME280;41823;45.534;-73.332;2022-11-13T06:36:02;100259.32;;;29.68;15.17
55912;BME280;41823;45.534;-73.332;2022-11-13T06:38:31;100264.27;;;30.00;15.10
55912;BME280;41823;45.534;-73.332;2022-11-13T06:40:59;100259.66;;;29.99;15.18
55912;BME280;41823;45.534;-73.332;2022-11-13T06:43:29;100266.78;;;30.18;14.94
55912;BME280;41823;45.534;-73.332;2022-11-13T06:45:57;100271.10;;;29.67;15.05
55912;BME280;41823;45.534;-73.332;2022-11-13T06:48:25;100272.86;;;29.94;15.10
55912;BME280;41823;45.534;-73.332;2022-11-13T06:50:53;100285.33;;;29.36;15.29
55912;BME280;41823;45.534;-73.332;2022-11-13T06:53:21;100284.12;;;29.28;15.46
55912;BME280;41823;45.534;-73.332;2022-11-13T06:55:49;100285.42;;;29.69;15.04
55912;BME280;41823;45.534;-73.332;2022-11-13T06:58:17;100284.57;;;29.62;14.65
55912;BME280;41823;45.534;-73.332;2022-11-13T07:00:45;100294.26;;;29.40;14.70
55912;BME280;41823;45.534;-73.332;2022-11-13T07:03:16;100297.07;;;29.10;14.95
55912;BME280;41823;45.534;-73.332;2022-11-13T07:05:44;100300.37;;;29.02;14.97
55912;BME280;41823;45.534;-73.332;2022-11-13T07:08:13;100304.43;;;29.24;14.90
55912;BME280;41823;45.534;-73.332;2022-11-13T07:10:41;100307.12;;;28.99;14.87
55912;BME280;41823;45.534;-73.332;2022-11-13T07:13:10;100307.03;;;29.05;14.99
55912;BME280;41823;45.534;-73.332;2022-11-13T07:15:38;100306.92;;;28.91;14.90
55912;BME280;41823;45.534;-73.332;2022-11-13T07:18:06;100316.18;;;29.14;14.44
55912;BME280;41823;45.534;-73.332;2022-11-13T07:20:34;100317.35;;;29.48;14.11
55912;BME280;41823;45.534;-73.332;2022-11-13T07:23:03;100314.49;;;30.23;13.90
55912;BME280;41823;45.534;-73.332;2022-11-13T07:25:31;100321.85;;;29.21;13.97
55912;BME280;41823;45.534;-73.332;2022-11-13T07:27:59;100327.36;;;29.17;13.84
55912;BME280;41823;45.534;-73.332;2022-11-13T07:30:27;100324.07;;;29.22;13.64
55912;BME280;41823;45.534;-73.332;2022-11-13T07:32:55;100320.88;;;29.58;13.52
55912;BME280;41823;45.534;-73.332;2022-11-13T07:35:22;100325.29;;;28.70;13.56
55912;BME280;41823;45.534;-73.332;2022-11-13T07:37:54;100323.24;;;29.21;13.55
55912;BME280;41823;45.534;-73.332;2022-11-13T07:40:22;100328.29;;;28.96;13.76
55912;BME280;41823;45.534;-73.332;2022-11-13T07:42:56;100326.16;;;28.76;13.70
55912;BME280;41823;45.534;-73.332;2022-11-13T07:45:25;100331.26;;;28.60;13.62
55912;BME280;41823;45.534;-73.332;2022-11-13T07:47:56;100328.60;;;28.65;13.53
55912;BME280;41823;45.534;-73.332;2022-11-13T07:50:24;100321.38;;;28.56;14.01
55912;BME280;41823;45.534;-73.332;2022-11-13T07:52:55;100324.30;;;28.69;13.93
55912;BME280;41823;45.534;-73.332;2022-11-13T07:55:23;100319.56;;;28.60;14.02
55912;BME280;41823;45.534;-73.332;2022-11-13T07:57:53;100327.12;;;28.91;13.56
55912;BME280;41823;45.534;-73.332;2022-11-13T08:00:22;100330.34;;;29.39;13.63
55912;BME280;41823;45.534;-73.332;2022-11-13T08:02:49;100334.52;;;29.56;13.31
55912;BME280;41823;45.534;-73.332;2022-11-13T08:05:17;100335.41;;;29.57;13.25
55912;BME280;41823;45.534;-73.332;2022-11-13T08:07:46;100336.35;;;29.73;13.07
55912;BME280;41823;45.534;-73.332;2022-11-13T08:10:15;100338.71;;;29.80;12.90
55912;BME280;41823;45.534;-73.332;2022-11-13T08:12:44;100332.07;;;30.13;12.77
55912;BME280;41823;45.534;-73.332;2022-11-13T08:15:12;100330.12;;;29.85;12.94
55912;BME280;41823;45.534;-73.332;2022-11-13T08:17:39;100328.36;;;29.80;13.05
55912;BME280;41823;45.534;-73.332;2022-11-13T08:20:08;100324.46;;;29.94;12.93
55912;BME280;41823;45.534;-73.332;2022-11-13T08:22:36;100323.27;;;30.08;13.29
55912;BME280;41823;45.534;-73.332;2022-11-13T08:25:04;100321.16;;;30.18;13.12
55912;BME280;41823;45.534;-73.332;2022-11-13T08:27:34;100321.45;;;29.78;13.25
55912;BME280;41823;45.534;-73.332;2022-11-13T08:30:02;100317.83;;;29.95;13.25
55912;BME280;41823;45.534;-73.332;2022-11-13T08:32:30;100314.43;;;29.93;13.32
55912;BME280;41823;45.534;-73.332;2022-11-13T08:34:58;100316.45;;;29.98;13.16
55912;BME280;41823;45.534;-73.332;2022-11-13T08:37:26;100321.44;;;30.15;13.25
55912;BME280;41823;45.534;-73.332;2022-11-13T08:39:54;100318.50;;;29.86;13.31
55912;BME280;41823;45.534;-73.332;2022-11-13T08:42:22;100317.63;;;30.60;13.21
55912;BME280;41823;45.534;-73.332;2022-11-13T08:44:50;100323.33;;;30.45;13.04
55912;BME280;41823;45.534;-73.332;2022-11-13T08:47:18;100321.31;;;30.21;12.85
55912;BME280;41823;45.534;-73.332;2022-11-13T08:49:45;100326.17;;;29.93;13.10
55912;BME280;41823;45.534;-73.332;2022-11-13T08:52:14;100329.32;;;30.15;13.00
55912;BME280;41823;45.534;-73.332;2022-11-13T08:54:42;100333.15;;;30.45;12.85
55912;BME280;41823;45.534;-73.332;2022-11-13T08:57:10;100334.34;;;30.72;12.75
55912;BME280;41823;45.534;-73.332;2022-11-13T08:59:38;100337.63;;;30.12;13.22
55912;BME280;41823;45.534;-73.332;2022-11-13T09:02:06;100341.86;;;30.31;13.18
55912;BME280;41823;45.534;-73.332;2022-11-13T09:04:34;100341.99;;;30.45;13.29
55912;BME280;41823;45.534;-73.332;2022-11-13T09:07:02;100344.21;;;30.26;13.02
55912;BME280;41823;45.534;-73.332;2022-11-13T09:09:30;100348.87;;;30.21;13.35
55912;BME280;41823;45.534;-73.332;2022-11-13T09:11:58;100348.32;;;29.89;13.16
55912;BME280;41823;45.534;-73.332;2022-11-13T09:14:26;100344.43;;;30.31;13.17
55912;BME280;41823;45.534;-73.332;2022-11-13T09:16:53;100348.16;;;30.25;13.02
55912;BME280;41823;45.534;-73.332;2022-11-13T09:19:21;100350.98;;;29.95;13.08
55912;BME280;41823;45.534;-73.332;2022-11-13T09:21:50;100347.07;;;29.64;13.18
55912;BME280;41823;45.534;-73.332;2022-11-13T09:24:18;100350.64;;;29.83;13.28
55912;BME280;41823;45.534;-73.332;2022-11-13T09:26:46;100342.36;;;30.11;13.07
55912;BME280;41823;45.534;-73.332;2022-11-13T09:29:14;100350.68;;;30.15;13.07
55912;BME280;41823;45.534;-73.332;2022-11-13T09:31:42;100349.78;;;29.51;13.15
55912;BME280;41823;45.534;-73.332;2022-11-13T09:34:10;100352.75;;;29.65;13.23
55912;BME280;41823;45.534;-73.332;2022-11-13T09:36:38;100351.91;;;29.69;13.16
55912;BME280;41823;45.534;-73.332;2022-11-13T09:39:06;100356.56;;;30.31;13.00
55912;BME280;41823;45.534;-73.332;2022-11-13T09:41:38;100358.96;;;29.76;13.03
55912;BME280;41823;45.534;-73.332;2022-11-13T09:44:11;100360.12;;;29.44;13.25
55912;BME280;41823;45.534;-73.332;2022-11-13T09:46:44;100363.55;;;29.68;13.16
55912;BME280;41823;45.534;-73.332;2022-11-13T09:49:16;100364.96;;;29.32;13.18
55912;BME280;41823;45.534;-73.332;2022-11-13T09:51:50;100364.32;;;29.39;13.21
55912;BME280;41823;45.534;-73.332;2022-11-13T09:54:20;100366.40;;;29.64;13.21
55912;BME280;41823;45.534;-73.332;2022-11-13T09:57:03;100373.30;;;28.80;13.54
55912;BME280;41823;45.534;-73.332;2022-11-13T09:59:41;100380.44;;;29.34;13.26
55912;BME280;41823;45.534;-73.332;2022-11-13T10:02:20;100380.98;;;29.38;13.27
55912;BME280;41823;45.534;-73.332;2022-11-13T10:04:56;100380.84;;;29.72;13.17
55912;BME280;41823;45.534;-73.332;2022-11-13T10:07:35;100382.71;;;30.31;12.89
55912;BME280;41823;45.534;-73.332;2022-11-13T10:10:29;100383.80;;;29.59;13.21
55912;BME280;41823;45.534;-73.332;2022-11-13T10:13:02;100394.57;;;29.77;13.16
55912;BME280;41823;45.534;-73.332;2022-11-13T10:15:31;100397.66;;;30.06;13.16
55912;BME280;41823;45.534;-73.332;2022-11-13T10:18:02;100401.73;;;29.64;13.26
55912;BME280;41823;45.534;-73.332;2022-11-13T10:20:36;100399.71;;;29.91;12.96
55912;BME280;41823;45.534;-73.332;2022-11-13T10:23:10;100397.87;;;29.61;13.13
55912;BME280;41823;45.534;-73.332;2022-11-13T10:25:43;100396.74;;;29.94;12.96
55912;BME280;41823;45.534;-73.332;2022-11-13T10:28:14;100402.47;;;29.86;13.04
55912;BME280;41823;45.534;-73.332;2022-11-13T10:30:43;100404.70;;;30.36;12.92
55912;BME280;41823;45.534;-73.332;2022-11-13T10:33:15;100410.92;;;29.75;13.11
55912;BME280;41823;45.534;-73.332;2022-11-13T10:35:51;100409.13;;;29.95;13.05
55912;BME280;41823;45.534;-73.332;2022-11-13T10:38:26;100413.13;;;29.85;13.03
55912;BME280;41823;45.534;-73.332;2022-11-13T10:41:06;100419.81;;;30.00;12.95
55912;BME280;41823;45.534;-73.332;2022-11-13T10:43:47;100428.36;;;29.67;12.97
55912;BME280;41823;45.534;-73.332;2022-11-13T10:46:19;100432.14;;;29.51;13.25
55912;BME280;41823;45.534;-73.332;2022-11-13T10:48:47;100428.61;;;30.27;12.86
55912;BME280;41823;45.534;-73.332;2022-11-13T10:51:22;100434.51;;;29.51;13.33
55912;BME280;41823;45.534;-73.332;2022-11-13T10:53:50;100428.82;;;29.23;13.45
55912;BME280;41823;45.534;-73.332;2022-11-13T10:56:25;100432.14;;;28.85;13.77
55912;BME280;41823;45.534;-73.332;2022-11-13T10:59:04;100428.05;;;29.31;13.37
55912;BME280;41823;45.534;-73.332;2022-11-13T11:01:37;100432.62;;;29.04;13.69
55912;BME280;41823;45.534;-73.332;2022-11-13T11:04:06;100431.92;;;29.18;13.67
55912;BME280;41823;45.534;-73.332;2022-11-13T11:06:38;100431.94;;;29.85;13.14
55912;BME280;41823;45.534;-73.332;2022-11-13T11:09:18;100432.01;;;29.79;13.14
55912;BME280;41823;45.534;-73.332;2022-11-13T11:11:58;100436.59;;;29.89;13.16
55912;BME280;41823;45.534;-73.332;2022-11-13T11:14:33;100440.73;;;30.15;13.18
55912;BME280;41823;45.534;-73.332;2022-11-13T11:17:03;100440.64;;;30.53;12.96
55912;BME280;41823;45.534;-73.332;2022-11-13T11:19:36;100445.38;;;30.14;12.75
55912;BME280;41823;45.534;-73.332;2022-11-13T11:22:16;100445.69;;;29.41;13.20
55912;BME280;41823;45.534;-73.332;2022-11-13T11:24:53;100440.83;;;29.58;13.14
55912;BME280;41823;45.534;-73.332;2022-11-13T11:27:27;100442.91;;;30.08;12.99
55912;BME280;41823;45.534;-73.332;2022-11-13T11:30:02;100448.03;;;29.31;13.21
55912;BME280;41823;45.534;-73.332;2022-11-13T11:32:35;100454.02;;;29.64;13.34
55912;BME280;41823;45.534;-73.332;2022-11-13T11:35:10;100450.92;;;29.32;13.34
55912;BME280;41823;45.534;-73.332;2022-11-13T11:37:46;100457.58;;;29.46;13.26
55912;BME280;41823;45.534;-73.332;2022-11-13T11:40:21;100461.42;;;29.51;13.24
55912;BME280;41823;45.534;-73.332;2022-11-13T11:42:59;100461.26;;;29.37;13.62
55912;BME280;41823;45.534;-73.332;2022-11-13T11:45:31;100463.70;;;29.49;13.29
55912;BME280;41823;45.534;-73.332;2022-11-13T11:48:01;100460.04;;;29.77;13.22
55912;BME280;41823;45.534;-73.332;2022-11-13T11:50:38;100464.01;;;29.82;13.26
55912;BME280;41823;45.534;-73.332;2022-11-13T11:53:14;100472.14;;;29.38;13.32
55912;BME280;41823;45.534;-73.332;2022-11-13T11:55:56;100468.95;;;29.59;13.15
55912;BME280;41823;45.534;-73.332;2022-11-13T11:58:43;100476.88;;;29.77;13.21
55912;BME280;41823;45.534;-73.332;2022-11-13T12:01:25;100482.04;;;30.03;13.01
55912;BME280;41823;45.534;-73.332;2022-11-13T12:04:09;100477.11;;;29.93;13.24
55912;BME280;41823;45.534;-73.332;2022-11-13T12:06:58;100477.64;;;29.96;13.11
55912;BME280;41823;45.534;-73.332;2022-11-13T12:09:32;100480.41;;;29.87;12.98
55912;BME280;41823;45.534;-73.332;2022-11-13T12:12:10;100482.76;;;30.02;13.06
55912;BME280;41823;45.534;-73.332;2022-11-13T12:14:48;100488.00;;;29.44;13.21
55912;BME280;41823;45.534;-73.332;2022-11-13T12:17:33;100488.68;;;29.60;13.17
55912;BME280;41823;45.534;-73.332;2022-11-13T12:20:15;100491.27;;;30.18;13.12
55912;BME280;41823;45.534;-73.332;2022-11-13T12:22:54;100498.47;;;30.65;12.63
55912;BME280;41823;45.534;-73.332;2022-11-13T12:25:26;100506.63;;;30.03;12.79
55912;BME280;41823;45.534;-73.332;2022-11-13T12:28:05;100514.57;;;29.80;12.92
55912;BME280;41823;45.534;-73.332;2022-11-13T12:30:44;100514.92;;;29.53;12.81
55912;BME280;41823;45.534;-73.332;2022-11-13T12:33:22;100511.36;;;29.68;12.89
55912;BME280;41823;45.534;-73.332;2022-11-13T12:35:53;100516.98;;;29.94;13.01
55912;BME280;41823;45.534;-73.332;2022-11-13T12:38:31;100512.56;;;29.42;13.19
55912;BME280;41823;45.534;-73.332;2022-11-13T12:41:08;100514.98;;;29.50;12.97
55912;BME280;41823;45.534;-73.332;2022-11-13T12:43:58;100515.97;;;29.72;12.94
55912;BME280;41823;45.534;-73.332;2022-11-13T12:46:36;100515.18;;;29.17;13.33
55912;BME280;41823;45.534;-73.332;2022-11-13T12:49:24;100517.59;;;28.95;13.35